createdAt,value
2022-11-24T00:01:26.258Z,99637.16
2022-11-24T00:04:00.858Z,99630.38
2022-11-24T00:06:28.354Z,99641.69
2022-11-24T00:08:55.086Z,99638.97
2022-11-24T00:11:24.041Z,99646.47
2022-11-24T00:13:50.971Z,99645.34
2022-11-24T00:16:20.530Z,99647.41
2022-11-24T00:18:49.263Z,99639.16
2022-11-24T00:21:17.098Z,99650.06
2022-11-24T00:23:44.324Z,99653.16
2022-11-24T00:26:13.492Z,99658.97
2022-11-24T00:28:41.071Z,99656.53
2022-11-24T00:31:18.137Z,99659.84
2022-11-24T00:33:46.385Z,99662.28
2022-11-24T00:36:13.105Z,99663.88
2022-11-24T00:38:39.789Z,99676.88
2022-11-24T00:41:06.762Z,99677.81
2022-11-24T00:43:33.394Z,99687.91
2022-11-24T00:45:59.979Z,99692.59
2022-11-24T00:48:26.542Z,99684.25
2022-11-24T00:51:01.563Z,99690.06
2022-11-24T00:53:28.884Z,99684.97
2022-11-24T00:55:55.624Z,99689.13
2022-11-24T00:58:23.781Z,99682.72
2022-11-24T01:00:51.258Z,99688.47
2022-11-24T01:03:19.839Z,99709.28
2022-11-24T01:05:46.292Z,99698.22
2022-11-24T01:08:12.719Z,99706.03
2022-11-24T01:10:39.261Z,99704.44
2022-11-24T01:13:06.014Z,99707.44
2022-11-24T01:15:35.585Z,99713.59
2022-11-24T01:18:02.262Z,99708.41
2022-11-24T01:20:28.609Z,99718.03
2022-11-24T01:22:54.965Z,99723.56
2022-11-24T01:25:21.374Z,99734.16
2022-11-24T01:27:47.730Z,99727.75
2022-11-24T01:30:14.263Z,99729.06
2022-11-24T01:32:40.630Z,99708.84
2022-11-24T01:35:07.791Z,99733.22
2022-11-24T01:37:34.256Z,99735.53
2022-11-24T01:40:00.648Z,99742.34
2022-11-24T01:42:37.210Z,99741.78
2022-11-24T01:45:42.268Z,99738.75
2022-11-24T01:48:38.701Z,99743.59
2022-11-24T01:51:12.694Z,99746.72
2022-11-24T01:53:43.975Z,99743.34
2022-11-24T01:56:12.256Z,99760.00
2022-11-24T01:58:41.006Z,99749.50
2022-11-24T02:01:08.610Z,99748.53
2022-11-24T02:03:39.029Z,99748.53
2022-11-24T02:06:21.972Z,99749.31
2022-11-24T02:09:00.579Z,99740.78
2022-11-24T02:11:33.561Z,99749.50
2022-11-24T02:14:00.475Z,99757.06
2022-11-24T02:16:27.293Z,99756.69
2022-11-24T02:18:53.841Z,99751.94
2022-11-24T02:21:20.358Z,99744.56
2022-11-24T02:23:46.638Z,99748.47
2022-11-24T02:26:44.086Z,99750.22
2022-11-24T02:29:12.812Z,99751.28
2022-11-24T02:31:44.393Z,99731.25
2022-11-24T02:34:10.736Z,99746.09
2022-11-24T02:36:37.194Z,99751.31
2022-11-24T02:39:05.467Z,99755.44
2022-11-24T02:41:31.994Z,99766.81
2022-11-24T02:44:02.069Z,99755.72
2022-11-24T02:46:28.464Z,99763.34
2022-11-24T02:48:55.012Z,99752.16
2022-11-24T02:51:21.505Z,99763.81
2022-11-24T02:53:47.882Z,99760.13
2022-11-24T02:56:14.300Z,99769.69
2022-11-24T02:58:40.822Z,99769.19
2022-11-24T03:01:07.293Z,99779.19
2022-11-24T03:03:33.774Z,99779.69
2022-11-24T03:06:00.210Z,99779.94
2022-11-24T03:08:26.597Z,99773.69
2022-11-24T03:10:52.934Z,99766.09
2022-11-24T03:13:19.338Z,99778.78
2022-11-24T03:15:45.792Z,99776.59
2022-11-24T03:18:12.235Z,99775.25
2022-11-24T03:20:38.569Z,99772.44
2022-11-24T03:23:05.076Z,99762.59
2022-11-24T03:25:31.522Z,99749.97
2022-11-24T03:28:00.392Z,99758.34
2022-11-24T03:30:26.880Z,99751.03
2022-11-24T03:32:53.982Z,99764.00
2022-11-24T03:35:21.474Z,99770.06
2022-11-24T03:37:47.842Z,99766.13
2022-11-24T03:40:14.830Z,99761.38
2022-11-24T03:42:41.238Z,99768.00
2022-11-24T03:45:44.812Z,99757.94
2022-11-24T03:47:54.377Z,99764.69
2022-11-24T03:50:20.762Z,99771.28
2022-11-24T03:52:47.097Z,99758.59
2022-11-24T03:55:13.550Z,99747.63
2022-11-24T03:57:39.883Z,99767.00
2022-11-24T04:00:06.864Z,99759.47
2022-11-24T04:02:33.446Z,99776.44
2022-11-24T04:04:59.796Z,99775.84
2022-11-24T04:07:26.195Z,99779.38
2022-11-24T04:09:52.634Z,99782.38
2022-11-24T04:12:37.666Z,99785.00
2022-11-24T04:15:04.363Z,99763.91
2022-11-24T04:17:30.660Z,99782.63
2022-11-24T04:19:56.994Z,99785.22
2022-11-24T04:22:23.275Z,99788.81
2022-11-24T04:24:49.586Z,99777.53
2022-11-24T04:27:15.957Z,99772.53
2022-11-24T04:29:42.381Z,99776.91
2022-11-24T04:32:08.889Z,99775.38
2022-11-24T04:34:36.133Z,99779.97
2022-11-24T04:37:02.726Z,99787.03
2022-11-24T04:39:29.165Z,99790.69
2022-11-24T04:41:55.816Z,99789.97
2022-11-24T04:44:22.202Z,99792.78
2022-11-24T04:46:48.539Z,99793.78
2022-11-24T04:49:15.017Z,99797.38
2022-11-24T04:51:41.934Z,99789.44
2022-11-24T04:54:11.279Z,99802.72
2022-11-24T04:56:37.639Z,99796.69
2022-11-24T04:59:08.174Z,99805.50
2022-11-24T05:01:35.063Z,99802.16
2022-11-24T05:04:01.537Z,99811.00
2022-11-24T05:06:27.901Z,99808.63
2022-11-24T05:08:54.221Z,99813.06
2022-11-24T05:11:20.562Z,99814.72
2022-11-24T05:13:46.892Z,99819.22
2022-11-24T05:16:13.217Z,99821.97
2022-11-24T05:18:39.599Z,99824.75
2022-11-24T05:21:09.113Z,99830.91
2022-11-24T05:23:35.709Z,99838.97
2022-11-24T05:26:02.292Z,99824.03
2022-11-24T05:28:29.145Z,99835.53
2022-11-24T05:30:59.458Z,99841.13
2022-11-24T05:33:28.421Z,99839.34
2022-11-24T05:35:54.934Z,99849.94
2022-11-24T05:38:22.558Z,99852.56
2022-11-24T05:40:48.973Z,99849.06
2022-11-24T05:43:16.605Z,99849.06
2022-11-24T05:45:44.148Z,99862.31
2022-11-24T05:48:13.401Z,99853.50
2022-11-24T05:50:40.309Z,99864.28
2022-11-24T05:53:09.548Z,99858.16
2022-11-24T05:55:36.429Z,99853.00
2022-11-24T05:58:05.160Z,99854.78
2022-11-24T06:00:33.294Z,99854.94
2022-11-24T06:03:00.274Z,99856.88
2022-11-24T06:05:28.218Z,99858.59
2022-11-24T06:07:55.176Z,99862.91
2022-11-24T06:10:23.893Z,99865.53
2022-11-24T06:12:50.737Z,99860.25
2022-11-24T06:15:17.344Z,99856.81
2022-11-24T06:17:43.939Z,99857.78
2022-11-24T06:20:11.119Z,99860.47
2022-11-24T06:22:38.089Z,99867.50
2022-11-24T06:25:04.756Z,99873.81
2022-11-24T06:27:31.118Z,99872.81
2022-11-24T06:29:57.725Z,99868.31
2022-11-24T06:32:24.177Z,99863.00
2022-11-24T06:34:50.506Z,99866.53
2022-11-24T06:37:16.971Z,99875.41
2022-11-24T06:39:43.298Z,99880.91
2022-11-24T06:42:09.646Z,99877.31
2022-11-24T06:44:36.211Z,99875.34
2022-11-24T06:47:02.761Z,99877.06
2022-11-24T06:49:29.248Z,99880.56
2022-11-24T06:51:55.790Z,99885.13
2022-11-24T06:54:22.182Z,99888.88
2022-11-24T06:56:48.579Z,99900.09
2022-11-24T06:59:20.421Z,99903.06
2022-11-24T07:01:46.992Z,99916.91
2022-11-24T07:04:13.975Z,99912.31
2022-11-24T07:06:41.258Z,99914.94
2022-11-24T07:09:12.132Z,99914.03
2022-11-24T07:11:39.550Z,99923.13
2022-11-24T07:14:06.150Z,99925.56
2022-11-24T07:16:33.257Z,99926.41
2022-11-24T07:19:00.109Z,99931.59
2022-11-24T07:21:27.716Z,99927.94
2022-11-24T07:23:56.103Z,99930.56
2022-11-24T07:26:23.661Z,99935.81
2022-11-24T07:28:50.715Z,99942.31
2022-11-24T07:31:20.690Z,99948.47
2022-11-24T07:33:54.940Z,99944.16
2022-11-24T07:36:22.555Z,99952.16
2022-11-24T07:38:49.217Z,99949.34
2022-11-24T07:41:17.848Z,99951.00
2022-11-24T07:43:44.182Z,99958.72
2022-11-24T07:46:14.014Z,99961.41
2022-11-24T07:48:40.765Z,99977.22
2022-11-24T07:51:08.240Z,99976.66
2022-11-24T07:53:35.553Z,99963.31
2022-11-24T07:56:04.852Z,99981.50
2022-11-24T07:58:33.478Z,99979.69
2022-11-24T08:01:00.621Z,99985.72
2022-11-24T08:03:27.569Z,99988.28
2022-11-24T08:08:45.232Z,99999.84
2022-11-24T08:11:16.963Z,99994.81
2022-11-24T08:13:44.210Z,100001.09
2022-11-24T08:16:13.413Z,100007.44
2022-11-24T08:18:39.859Z,100019.09
2022-11-24T08:21:07.050Z,100023.69
2022-11-24T08:23:34.096Z,100021.28
2022-11-24T08:26:09.106Z,100014.25
2022-11-24T08:28:36.009Z,100025.00
2022-11-24T08:31:04.968Z,100018.97
2022-11-24T08:33:31.544Z,100021.72
2022-11-24T08:36:03.668Z,100021.13
2022-11-24T08:38:30.008Z,100026.66
2022-11-24T08:41:00.889Z,100020.66
2022-11-24T08:43:27.234Z,100038.63
2022-11-24T08:45:53.702Z,100037.84
2022-11-24T08:48:20.053Z,100041.47
2022-11-24T08:50:46.397Z,100051.22
2022-11-24T08:53:12.798Z,100043.41
2022-11-24T08:55:39.086Z,100040.97
2022-11-24T08:58:05.360Z,100049.03
2022-11-24T09:00:31.767Z,100058.91
2022-11-24T09:02:58.866Z,100047.53
2022-11-24T09:05:50.619Z,100051.88
2022-11-24T09:08:12.041Z,100057.25
2022-11-24T09:10:38.446Z,100052.06
2022-11-24T09:13:04.795Z,100052.88
2022-11-24T09:15:31.088Z,100054.50
2022-11-24T09:17:57.614Z,100064.09
2022-11-24T09:20:24.109Z,100069.38
2022-11-24T09:22:50.491Z,100065.97
2022-11-24T09:25:17.172Z,100069.69
2022-11-24T09:27:43.466Z,100065.53
2022-11-24T09:30:10.458Z,100065.72
2022-11-24T09:32:37.577Z,100070.28
2022-11-24T09:35:04.351Z,100072.94
2022-11-24T09:37:32.929Z,100071.88
2022-11-24T09:39:59.453Z,100073.59
2022-11-24T09:42:53.936Z,100093.75
2022-11-24T09:46:04.065Z,100094.56
2022-11-24T09:48:30.848Z,100098.22
2022-11-24T09:51:00.897Z,100097.50
2022-11-24T09:53:56.932Z,100108.19
2022-11-24T09:56:29.897Z,100110.97
2022-11-24T09:59:05.219Z,100110.16
2022-11-24T10:01:41.677Z,100102.22
2022-11-24T10:04:19.454Z,100116.34
2022-11-24T10:07:09.524Z,100113.75
2022-11-24T10:10:06.207Z,100115.59
2022-11-24T10:12:57.141Z,100112.13
2022-11-24T10:15:34.780Z,100111.47
2022-11-24T10:18:16.400Z,100117.91
2022-11-24T10:21:25.725Z,100125.09
2022-11-24T10:24:23.128Z,100127.06
2022-11-24T10:27:02.007Z,100123.69
2022-11-24T10:29:40.338Z,100124.56
2022-11-24T10:32:31.817Z,100120.13
2022-11-24T10:35:14.862Z,100120.13
2022-11-24T10:37:51.069Z,100114.81
2022-11-24T10:40:56.953Z,100118.38
2022-11-24T10:43:26.732Z,100117.47
2022-11-24T10:45:53.300Z,100125.44
2022-11-24T10:48:26.059Z,100118.31
2022-11-24T10:51:08.160Z,100128.94
2022-11-24T10:53:35.862Z,100131.56
2022-11-24T10:56:05.069Z,100134.16
2022-11-24T10:58:38.415Z,100135.91
2022-11-24T11:01:14.320Z,100146.41
2022-11-24T11:03:57.988Z,100145.41
2022-11-24T11:06:27.014Z,100147.13
2022-11-24T11:09:18.958Z,100150.53
2022-11-24T11:11:48.241Z,100147.94
2022-11-24T11:14:31.161Z,100148.03
2022-11-24T11:16:57.935Z,100148.94
2022-11-24T11:19:50.363Z,100155.13
2022-11-24T11:22:26.588Z,100155.09
2022-11-24T11:25:09.310Z,100161.22
2022-11-24T11:27:36.549Z,100170.00
2022-11-24T11:36:10.668Z,100171.91
2022-11-24T11:38:39.555Z,100164.16
2022-11-24T11:41:13.860Z,100170.47
2022-11-24T11:43:41.262Z,100179.38
2022-11-24T11:46:18.277Z,100176.81
2022-11-24T11:48:46.741Z,100177.69
2022-11-24T11:51:31.688Z,100171.50
2022-11-24T11:54:12.978Z,100183.91
2022-11-24T11:56:45.899Z,100169.72
2022-11-24T11:59:41.730Z,100182.94
2022-11-24T12:02:26.011Z,100179.34
2022-11-24T12:05:20.408Z,100178.44
2022-11-24T12:08:21.543Z,100187.31
2022-11-24T12:10:59.805Z,100187.28
2022-11-24T12:13:44.536Z,100195.19
2022-11-24T12:16:35.009Z,100199.72
2022-11-24T12:19:16.609Z,100195.31
2022-11-24T12:21:50.226Z,100198.03
2022-11-24T12:24:55.145Z,100192.69
2022-11-24T12:27:33.183Z,100201.63
2022-11-24T12:30:12.414Z,100203.41
2022-11-24T12:32:44.953Z,100204.28
2022-11-24T12:35:14.434Z,100208.69
2022-11-24T12:37:58.417Z,100203.41
2022-11-24T12:41:33.715Z,100200.75
2022-11-24T12:43:55.235Z,100204.28
2022-11-24T12:46:30.352Z,100217.56
2022-11-24T12:49:06.107Z,100220.22
2022-11-24T12:51:37.323Z,100209.56
2022-11-24T12:54:10.319Z,100214.00
2022-11-24T12:56:49.326Z,100207.78
2022-11-24T12:59:39.340Z,100211.28
2022-11-24T13:02:20.815Z,100213.94
2022-11-24T13:04:51.821Z,100221.91
2022-11-24T13:07:37.862Z,100210.44
2022-11-24T13:10:46.476Z,100211.34
2022-11-24T13:13:13.300Z,100219.31
2022-11-24T13:16:34.561Z,100226.38
2022-11-24T13:18:55.627Z,100221.97
2022-11-24T13:21:29.250Z,100225.50
2022-11-24T13:24:02.322Z,100229.94
2022-11-24T13:26:32.420Z,100229.06
2022-11-24T13:29:13.357Z,100228.16
2022-11-24T13:31:50.589Z,100237.84
2022-11-24T13:34:38.930Z,100236.88
2022-11-24T13:37:40.539Z,100241.16
2022-11-24T13:40:29.661Z,100242.00
2022-11-24T13:42:56.104Z,100240.91
2022-11-24T13:45:45.041Z,100231.16
2022-11-24T13:48:21.434Z,100238.31
2022-11-24T13:50:51.760Z,100241.94
2022-11-24T13:53:31.878Z,100233.22
2022-11-24T13:56:00.530Z,100226.25
2022-11-24T13:58:51.033Z,100235.13
2022-11-24T14:01:20.286Z,100236.84
2022-11-24T14:04:34.006Z,100249.13
2022-11-24T14:07:09.035Z,100242.88
2022-11-24T14:09:48.153Z,100245.41
2022-11-24T14:12:25.353Z,100238.19
2022-11-24T14:14:56.574Z,100234.59
2022-11-24T14:17:26.655Z,100234.47
2022-11-24T14:19:57.502Z,100241.44
2022-11-24T14:22:43.161Z,100242.19
2022-11-24T14:25:24.861Z,100238.59
2022-11-24T14:27:51.236Z,100241.06
2022-11-24T14:30:21.814Z,100246.22
2022-11-24T14:32:58.189Z,100247.00
2022-11-24T14:35:33.123Z,100254.00
2022-11-24T14:38:02.305Z,100242.38
2022-11-24T14:40:37.901Z,100255.50
2022-11-24T14:43:20.806Z,100264.09
2022-11-24T14:45:56.565Z,100245.38
2022-11-24T14:48:28.618Z,100254.00
2022-11-24T14:51:06.249Z,100246.56
2022-11-24T14:53:34.010Z,100249.84
2022-11-24T14:56:09.249Z,100246.88
2022-11-24T14:58:41.773Z,100257.28
2022-11-24T15:01:11.291Z,100260.69
2022-11-24T15:03:37.782Z,100268.41
2022-11-24T15:06:04.299Z,100262.03
2022-11-24T15:08:46.674Z,100267.03
2022-11-24T15:11:13.788Z,100264.06
2022-11-24T15:13:51.080Z,100274.53
2022-11-24T15:16:20.466Z,100267.88
2022-11-24T15:18:48.361Z,100278.28
2022-11-24T15:21:19.197Z,100279.63
2022-11-24T15:24:06.044Z,100278.47
2022-11-24T15:26:38.242Z,100279.91
2022-11-24T15:29:07.949Z,100275.28
2022-11-24T15:31:34.336Z,100276.75
2022-11-24T15:34:00.684Z,100278.16
2022-11-24T15:36:27.015Z,100283.06
2022-11-24T15:38:53.340Z,100293.38
2022-11-24T15:41:22.142Z,100290.56
2022-11-24T15:43:48.670Z,100297.41
2022-11-24T15:46:15.819Z,100299.16
2022-11-24T15:48:42.204Z,100300.00
2022-11-24T15:51:14.891Z,100310.38
2022-11-24T15:53:46.475Z,100304.94
2022-11-24T15:56:20.630Z,100305.53
2022-11-24T15:58:46.909Z,100300.81
2022-11-24T16:01:13.338Z,100310.41
2022-11-24T16:03:47.072Z,100314.66
2022-11-24T16:06:24.211Z,100310.03
2022-11-24T16:08:52.127Z,100313.31
2022-11-24T16:11:18.462Z,100315.13
2022-11-24T16:13:51.490Z,100314.88
2022-11-24T16:16:19.203Z,100312.03
2022-11-24T16:18:45.822Z,100311.69
2022-11-24T16:21:12.256Z,100316.88
2022-11-24T16:23:38.912Z,100321.16
2022-11-24T16:26:05.959Z,100326.06
2022-11-24T16:28:32.967Z,100329.59
2022-11-24T16:30:59.340Z,100332.00
2022-11-24T16:33:25.720Z,100329.97
2022-11-24T16:35:52.128Z,100326.28
2022-11-24T16:38:19.874Z,100331.28
2022-11-24T16:40:58.456Z,100325.75
2022-11-24T16:43:24.890Z,100333.78
2022-11-24T16:46:17.863Z,100326.50
2022-11-24T16:48:45.733Z,100330.72
2022-11-24T16:51:13.394Z,100321.72
2022-11-24T16:53:40.655Z,100335.59
2022-11-24T16:56:07.189Z,100333.66
2022-11-24T16:58:36.353Z,100333.06
2022-11-24T17:01:04.557Z,100329.09
2022-11-24T17:03:33.347Z,100340.75
2022-11-24T17:06:01.002Z,100348.38
2022-11-24T17:08:30.759Z,100327.03
2022-11-24T17:10:57.171Z,100344.59
2022-11-24T17:13:24.137Z,100343.56
2022-11-24T17:15:54.150Z,100343.91
2022-11-24T17:18:25.201Z,100345.34
2022-11-24T17:20:52.023Z,100338.16
2022-11-24T17:23:19.430Z,100344.94
2022-11-24T17:25:45.902Z,100350.88
2022-11-24T17:28:12.253Z,100344.41
2022-11-24T17:30:38.598Z,100349.72
2022-11-24T17:33:05.706Z,100357.63
2022-11-24T17:35:34.586Z,100361.00
2022-11-24T17:38:01.260Z,100357.19
2022-11-24T17:40:29.305Z,100362.22
2022-11-24T17:43:00.464Z,100362.03
2022-11-24T17:45:28.213Z,100365.34
2022-11-24T17:47:56.042Z,100367.75
2022-11-24T17:50:25.646Z,100369.38
2022-11-24T17:52:53.558Z,100373.09
2022-11-24T17:55:19.959Z,100366.81
2022-11-24T17:57:46.315Z,100366.63
2022-11-24T18:00:13.388Z,100359.81
2022-11-24T18:02:39.794Z,100370.59
2022-11-24T18:05:06.753Z,100360.78
2022-11-24T18:07:36.280Z,100364.44
2022-11-24T18:10:03.209Z,100381.00
2022-11-24T18:12:29.545Z,100384.00
2022-11-24T18:14:55.875Z,100382.16
2022-11-24T18:17:22.270Z,100379.09
2022-11-24T18:19:48.574Z,100371.84
2022-11-24T18:22:14.953Z,100390.88
2022-11-24T18:24:41.320Z,100391.75
2022-11-24T18:27:07.664Z,100387.34
2022-11-24T18:29:33.985Z,100389.09
2022-11-24T18:32:00.375Z,100385.66
2022-11-24T18:34:26.722Z,100380.31
2022-11-24T18:36:53.173Z,100379.97
2022-11-24T18:39:19.602Z,100384.25
2022-11-24T18:41:46.582Z,100387.41
2022-11-24T18:44:12.999Z,100379.13
2022-11-24T18:46:39.578Z,100378.75
2022-11-24T18:49:06.959Z,100384.72
2022-11-24T18:51:33.883Z,100388.66
2022-11-24T18:54:02.046Z,100387.56
2022-11-24T18:56:28.398Z,100382.94
2022-11-24T18:58:56.472Z,100383.63
2022-11-24T19:01:28.369Z,100383.50
2022-11-24T19:03:59.445Z,100370.34
2022-11-24T19:06:31.790Z,100379.47
2022-11-24T19:08:59.733Z,100369.53
2022-11-24T19:11:28.993Z,100365.34
2022-11-24T19:13:56.420Z,100366.97
2022-11-24T19:16:23.362Z,100341.22
2022-11-24T19:18:54.107Z,100358.06
2022-11-24T19:21:21.832Z,100343.69
2022-11-24T19:23:49.202Z,100355.84
2022-11-24T19:26:15.484Z,100354.75
2022-11-24T19:28:41.892Z,100348.22
2022-11-24T19:31:11.550Z,100354.88
2022-11-24T19:33:38.204Z,100355.50
2022-11-24T19:36:04.848Z,100365.16
2022-11-24T19:38:32.745Z,100357.09
2022-11-24T19:41:06.661Z,100364.97
2022-11-24T19:43:33.977Z,100364.09
2022-11-24T19:46:06.104Z,100365.69
2022-11-24T19:48:34.488Z,100369.81
2022-11-24T19:51:01.826Z,100370.94
2022-11-24T19:53:28.984Z,100364.69
2022-11-24T19:55:55.774Z,100369.81
2022-11-24T19:58:22.113Z,100368.72
2022-11-24T20:00:48.455Z,100368.09
2022-11-24T20:03:14.989Z,100369.81
2022-11-24T20:05:41.264Z,100381.72
2022-11-24T20:08:07.701Z,100372.44
2022-11-24T20:10:34.037Z,100383.16
2022-11-24T20:13:00.380Z,100390.97
2022-11-24T20:15:26.672Z,100385.94
2022-11-24T20:17:53.039Z,100377.56
2022-11-24T20:20:19.328Z,100391.19
2022-11-24T20:22:46.440Z,100386.19
2022-11-24T20:25:12.760Z,100384.00
2022-11-24T20:27:39.046Z,100385.63
2022-11-24T20:30:06.220Z,100386.69
2022-11-24T20:32:32.519Z,100391.31
2022-11-24T20:34:58.895Z,100382.84
2022-11-24T20:37:25.812Z,100389.09
2022-11-24T20:39:52.456Z,100384.28
2022-11-24T20:42:18.831Z,100386.88
2022-11-24T20:44:45.115Z,100382.56
2022-11-24T20:47:11.527Z,100382.84
2022-11-24T20:49:37.860Z,100378.78
2022-11-24T20:52:04.478Z,100382.25
2022-11-24T20:54:30.819Z,100373.53
2022-11-24T20:56:57.233Z,100383.13
2022-11-24T20:59:25.068Z,100376.56
2022-11-24T21:01:52.450Z,100371.13
2022-11-24T21:04:22.530Z,100375.09
2022-11-24T21:06:49.620Z,100384.47
2022-11-24T21:09:16.777Z,100387.97
2022-11-24T21:11:43.118Z,100376.34
2022-11-24T21:14:10.230Z,100383.28
2022-11-24T21:16:38.933Z,100379.75
2022-11-24T21:19:08.568Z,100379.56
2022-11-24T21:21:37.333Z,100391.34
2022-11-24T21:24:06.376Z,100386.31
2022-11-24T21:26:37.195Z,100389.03
2022-11-24T21:29:03.840Z,100389.88
2022-11-24T21:31:34.075Z,100394.34
2022-11-24T21:34:00.431Z,100398.84
2022-11-24T21:36:26.832Z,100395.19
2022-11-24T21:38:55.944Z,100400.59
2022-11-24T21:41:24.535Z,100388.91
2022-11-24T21:43:57.264Z,100413.16
2022-11-24T21:46:24.798Z,100396.59
2022-11-24T21:48:51.150Z,100407.81
2022-11-24T21:51:20.035Z,100408.59
2022-11-24T21:53:47.477Z,100412.19
2022-11-24T21:56:17.022Z,100398.13
2022-11-24T21:58:48.842Z,100408.28
2022-11-24T22:01:17.247Z,100403.94
2022-11-24T22:03:43.836Z,100398.84
2022-11-24T22:06:10.222Z,100388.81
2022-11-24T22:08:36.719Z,100389.75
2022-11-24T22:11:06.492Z,100389.19
2022-11-24T22:13:33.542Z,100377.00
2022-11-24T22:16:02.439Z,100378.91
2022-11-24T22:18:33.936Z,100378.44
2022-11-24T22:21:02.797Z,100373.50
2022-11-24T22:23:30.733Z,100384.91
2022-11-24T22:26:02.828Z,100376.41
2022-11-24T22:28:36.212Z,100378.84
2022-11-24T22:31:13.459Z,100386.41
2022-11-24T22:33:39.873Z,100378.31
2022-11-24T22:36:07.616Z,100379.78
2022-11-24T22:38:34.514Z,100376.78
2022-11-24T22:41:02.834Z,100378.50
2022-11-24T22:43:31.533Z,100378.94
2022-11-24T22:45:57.889Z,100371.94
2022-11-24T22:48:24.339Z,100382.03
2022-11-24T22:50:50.628Z,100387.25
2022-11-24T22:53:16.902Z,100389.56
2022-11-24T22:55:45.617Z,100393.41
2022-11-24T22:58:11.917Z,100392.72
2022-11-24T23:00:38.296Z,100391.69
2022-11-24T23:03:04.678Z,100391.38
2022-11-24T23:05:32.897Z,100389.19
2022-11-24T23:07:59.266Z,100386.94
2022-11-24T23:10:25.615Z,100395.56
2022-11-24T23:12:51.938Z,100401.81
2022-11-24T23:15:18.244Z,100400.97
2022-11-24T23:17:44.527Z,100400.16
2022-11-24T23:20:11.790Z,100407.00
2022-11-24T23:22:38.099Z,100398.31
2022-11-24T23:25:04.726Z,100397.00
2022-11-24T23:27:31.046Z,100399.47
2022-11-24T23:29:57.478Z,100381.28
2022-11-24T23:32:23.823Z,100388.59
2022-11-24T23:34:50.210Z,100396.06
2022-11-24T23:37:16.620Z,100382.53
2022-11-24T23:39:42.957Z,100391.41
2022-11-24T23:42:09.290Z,100390.56
2022-11-24T23:44:35.728Z,100396.00
2022-11-24T23:47:02.297Z,100390.09
2022-11-24T23:49:29.099Z,100390.72
2022-11-24T23:51:55.385Z,100394.00
2022-11-24T23:54:21.734Z,100382.25
2022-11-24T23:56:50.443Z,100392.66
2022-11-24T23:59:17.360Z,100392.19
